OJAI/AMM METAR and TAF weather

Enter ICAO airport designator
Station Type Date Time Source
OJAI METAR 2021/03/02 16:00 UTC NOAA

OJAI 021600Z 25007KT 5000 HZ NSC 14/02 Q1020 NOSIG


Station Type Date Time Source
OJAI Decoded METAR 2021/03/02 16:00 UTC NOAA

Queen Alia Airport, Jordan (OJAI) 31-40N 035-58E
Mar 02, 2021 - 11:00 AM EST / 2021.03.02 1600 UTC
Wind: from the WSW (250 degrees) at 8 MPH (7 KT):0
Visibility: 3 mile(s):0
Weather: haze
Temperature: 57 F (14 C)
Dew Point: 35 F (2 C)
Relative Humidity: 44%
Pressure (altimeter): 30.12 in. Hg (1020 hPa)
ob: OJAI 021600Z 25007KT 5000 HZ NSC 14/02 Q1020 NOSIG
cycle: 16

Station Type Date Time Source
OJAI TAF 2021/03/02 12:15 UTC NOAA

TAF TAF OJAI 021100Z 0212/0318 24010KT 5000 HZ FEW030

Example: see airport list